Time;durP1;ratioP1;P1;durP2;ratioP2;P2;SDS_P1;SDS_P2;PMS_P1;PMS_P2;Temp;Humidity;BMP_temperature;BMP_pressure;BME280_temperature;BME280_humidity;BME280_pressure;Samples;Min_cycle;Max_cycle;Signal;HPM_P1;HPM_P2
2021/05/22 00:01:23;;;;;;;4.03;0.88;;;8.50;99.90;;;;;;6219655;23;20021;-93
2021/05/22 00:04:10;;;;;;;1.00;0.90;;;8.50;99.90;;;;;;6128325;23;20442;-94
2021/05/22 00:07:19;;;;;;;2.92;1.23;;;8.50;99.90;;;;;;6107036;23;20036;-92
2021/05/22 00:09:46;;;;;;;1.20;0.95;;;8.40;99.90;;;;;;6128091;23;20084;-92
2021/05/22 00:12:16;;;;;;;4.38;1.10;;;8.40;99.90;;;;;;6126582;23;20048;-94
2021/05/22 00:14:48;;;;;;;1.23;0.90;;;8.40;99.90;;;;;;6126760;23;20022;-93
2021/05/22 00:17:17;;;;;;;1.70;0.90;;;8.40;99.90;;;;;;6125952;23;20041;-90
2021/05/22 00:19:53;;;;;;;1.55;0.85;;;8.30;99.90;;;;;;6126765;23;20085;-93
2021/05/22 00:22:21;;;;;;;1.83;0.98;;;8.30;99.90;;;;;;6126874;23;20073;-92
2021/05/22 00:25:11;;;;;;;1.10;1.00;;;8.30;99.90;;;;;;6125784;23;20088;-92
2021/05/22 00:30:54;;;;;;;1.35;0.90;;;8.20;99.90;;;;;;6103622;23;20033;-92
2021/05/22 00:33:25;;;;;;;2.47;1.02;;;8.20;99.90;;;;;;6128396;23;20088;-90
2021/05/22 00:35:52;;;;;;;3.22;1.08;;;8.20;99.90;;;;;;6183603;23;20025;-90
2021/05/22 00:38:34;;;;;;;1.20;1.10;;;8.20;99.90;;;;;;6191522;23;20060;-94
2021/05/22 00:41:05;;;;;;;1.00;0.90;;;8.10;99.90;;;;;;6193734;23;20020;-94
2021/05/22 00:43:42;;;;;;;2.78;0.98;;;8.10;99.90;;;;;;6218996;23;20083;-93
2021/05/22 00:46:21;;;;;;;1.90;1.08;;;8.10;99.90;;;;;;6219558;23;20440;-93
2021/05/22 00:48:48;;;;;;;1.75;1.02;;;8.10;99.90;;;;;;6193816;23;20096;-91
2021/05/22 00:51:20;;;;;;;2.38;1.08;;;8.10;99.90;;;;;;6219459;23;20052;-92
2021/05/22 00:53:48;;;;;;;1.65;1.00;;;8.10;99.90;;;;;;6225488;23;20083;-91
2021/05/22 00:56:20;;;;;;;2.10;0.95;;;8.00;99.90;;;;;;6225827;23;20024;-93
2021/05/22 00:58:56;;;;;;;2.10;1.20;;;7.90;99.90;;;;;;6197975;23;20024;-93
2021/05/22 01:01:30;;;;;;;6.93;2.10;;;7.90;99.90;;;;;;6223242;23;20017;-91
2021/05/22 01:04:21;;;;;;;1.25;0.90;;;8.00;99.90;;;;;;6196583;23;20126;-93
2021/05/22 01:06:48;;;;;;;2.20;1.00;;;8.00;99.90;;;;;;6194471;23;20301;-91
2021/05/22 01:09:21;;;;;;;2.85;1.20;;;8.10;99.90;;;;;;6217711;23;20027;-92
2021/05/22 01:12:09;;;;;;;2.10;0.90;;;8.10;99.90;;;;;;6218687;23;20016;-93
2021/05/22 01:14:56;;;;;;;3.90;1.02;;;8.00;99.90;;;;;;6220075;23;20013;-93
2021/05/22 01:17:28;;;;;;;1.27;0.98;;;8.00;99.90;;;;;;6217147;23;20482;-93
2021/05/22 01:20:35;;;;;;;1.40;1.13;;;8.00;99.90;;;;;;6218775;23;20040;-93
2021/05/22 01:23:07;;;;;;;1.67;1.02;;;8.00;99.90;;;;;;6216045;23;20020;-92
2021/05/22 01:25:41;;;;;;;2.80;1.42;;;8.00;99.90;;;;;;6218364;23;20085;-94
2021/05/22 01:28:11;;;;;;;3.97;1.25;;;8.10;99.90;;;;;;6191112;23;20048;-93
2021/05/22 01:30:41;;;;;;;1.17;1.08;;;8.10;99.90;;;;;;6216687;23;20032;-91
2021/05/22 01:33:09;;;;;;;1.45;1.10;;;8.10;99.90;;;;;;6189112;23;20036;-91
2021/05/22 01:35:38;;;;;;;1.73;1.10;;;8.10;99.90;;;;;;6216337;23;20273;-92
2021/05/22 01:38:06;;;;;;;3.47;1.20;;;8.20;99.90;;;;;;6216452;23;20025;-90
2021/05/22 01:40:47;;;;;;;3.92;1.30;;;8.20;99.90;;;;;;6216530;23;20044;-91
2021/05/22 01:43:22;;;;;;;2.90;1.35;;;8.30;99.90;;;;;;6217981;23;20032;-94
2021/05/22 01:45:53;;;;;;;2.28;1.35;;;8.30;99.90;;;;;;6216572;23;20020;-93
2021/05/22 01:48:25;;;;;;;2.45;1.13;;;8.20;99.90;;;;;;6216090;23;20048;-94
2021/05/22 01:51:14;;;;;;;2.42;1.33;;;8.20;99.90;;;;;;6215725;23;20021;-92
2021/05/22 01:53:43;;;;;;;5.97;1.55;;;8.20;99.90;;;;;;6188774;23;20021;-92
2021/05/22 01:56:10;;;;;;;4.15;1.58;;;8.20;99.90;;;;;;6189152;23;20380;-92
2021/05/22 01:58:38;;;;;;;2.55;1.10;;;8.20;99.90;;;;;;6189470;23;20475;-92
2021/05/22 02:01:07;;;;;;;1.85;1.05;;;8.30;99.90;;;;;;6215121;23;20384;-90
2021/05/22 02:03:42;;;;;;;2.63;1.63;;;8.30;99.90;;;;;;6220389;23;20064;-93
2021/05/22 02:06:27;;;;;;;1.20;1.10;;;8.30;99.90;;;;;;6226242;23;20091;-92
2021/05/22 02:08:59;;;;;;;2.83;1.45;;;8.30;99.90;;;;;;6227593;23;20020;-92
2021/05/22 02:11:28;;;;;;;1.55;1.10;;;8.30;99.90;;;;;;6227273;23;20072;-91
2021/05/22 02:13:57;;;;;;;3.42;1.48;;;8.30;99.90;;;;;;6227002;23;20028;-92
2021/05/22 02:16:30;;;;;;;3.10;1.20;;;8.30;99.90;;;;;;6228071;23;20297;-93
2021/05/22 02:18:59;;;;;;;3.40;1.45;;;8.20;99.90;;;;;;6227219;23;20083;-92
2021/05/22 02:21:30;;;;;;;4.60;1.75;;;8.00;99.90;;;;;;6222476;23;20021;-91
2021/05/22 02:23:57;;;;;;;4.32;1.70;;;7.90;99.90;;;;;;6218969;23;20020;-92
2021/05/22 02:26:27;;;;;;;6.05;1.77;;;7.80;99.90;;;;;;6216771;23;20074;-91
2021/05/22 02:28:57;;;;;;;6.43;1.55;;;7.80;99.90;;;;;;6216355;23;20032;-93
2021/05/22 02:31:28;;;;;;;4.05;1.75;;;7.80;99.90;;;;;;6220432;23;20025;-92
2021/05/22 02:34:01;;;;;;;6.72;1.60;;;7.80;99.90;;;;;;6198361;23;20025;-94
2021/05/22 02:36:28;;;;;;;4.18;1.67;;;7.80;99.90;;;;;;6224302;23;20312;-92
2021/05/22 02:39:00;;;;;;;2.90;1.48;;;7.80;99.90;;;;;;6197434;23;20388;-94
2021/05/22 02:41:30;;;;;;;4.53;1.88;;;7.80;99.90;;;;;;6225351;23;20044;-92
2021/05/22 02:43:59;;;;;;;4.45;1.80;;;7.80;99.90;;;;;;6223320;23;20024;-92
2021/05/22 02:46:28;;;;;;;5.18;1.60;;;7.80;99.90;;;;;;6199942;23;20078;-92
2021/05/22 02:48:56;;;;;;;6.75;1.80;;;7.90;99.90;;;;;;6223628;23;20324;-91
2021/05/22 02:51:25;;;;;;;3.35;1.30;;;7.90;99.90;;;;;;6226675;23;20061;-95
2021/05/22 02:54:06;;;;;;;4.63;1.67;;;7.90;99.90;;;;;;6221032;23;20021;-92
2021/05/22 02:56:34;;;;;;;3.05;1.48;;;7.90;99.90;;;;;;6217793;23;20083;-93
2021/05/22 02:59:02;;;;;;;4.45;1.63;;;7.90;99.90;;;;;;6217809;23;20039;-92
2021/05/22 03:01:30;;;;;;;4.10;1.63;;;7.90;99.90;;;;;;6218111;23;20105;-91
2021/05/22 03:03:59;;;;;;;2.13;1.30;;;7.70;99.90;;;;;;6219782;23;20061;-92
2021/05/22 03:06:29;;;;;;;2.78;1.55;;;7.70;99.90;;;;;;6190555;23;20032;-91
2021/05/22 03:08:57;;;;;;;4.80;1.50;;;7.70;99.90;;;;;;6217112;23;20381;-94
2021/05/22 03:11:24;;;;;;;2.67;1.60;;;7.60;99.90;;;;;;6218367;23;20024;-93
2021/05/22 03:13:51;;;;;;;2.63;1.33;;;7.60;99.90;;;;;;6216243;23;20024;-93
2021/05/22 03:16:20;;;;;;;5.30;1.42;;;7.60;99.90;;;;;;6222278;23;20036;-94
2021/05/22 03:18:49;;;;;;;3.08;1.30;;;7.50;99.90;;;;;;6216772;23;20028;-93
2021/05/22 03:21:16;;;;;;;5.78;1.85;;;7.50;99.90;;;;;;6215258;23;20064;-94
2021/05/22 03:23:43;;;;;;;3.75;1.30;;;7.40;99.90;;;;;;6215549;23;20036;-93
2021/05/22 03:26:12;;;;;;;3.40;1.40;;;7.40;99.90;;;;;;6217417;23;20032;-93
2021/05/22 03:28:41;;;;;;;5.22;1.60;;;7.50;99.90;;;;;;6190683;23;20090;-94
2021/05/22 03:31:10;;;;;;;2.17;1.40;;;7.50;99.90;;;;;;6217549;23;20048;-92
2021/05/22 03:33:40;;;;;;;3.58;1.65;;;7.60;99.90;;;;;;6219738;23;20375;-92
2021/05/22 03:36:06;;;;;;;3.28;1.45;;;7.60;99.90;;;;;;6217648;23;20061;-92
2021/05/22 03:38:42;;;;;;;4.78;1.25;;;7.70;99.90;;;;;;6190650;23;20024;-93
2021/05/22 03:41:09;;;;;;;2.88;1.13;;;7.70;99.90;;;;;;6216447;23;20152;-93
2021/05/22 03:43:38;;;;;;;6.18;1.40;;;7.60;99.90;;;;;;6217999;23;20020;-92
2021/05/22 03:46:05;;;;;;;2.97;1.20;;;7.60;99.90;;;;;;6219115;23;20073;-93
2021/05/22 03:48:41;;;;;;;4.18;1.35;;;7.60;99.90;;;;;;6219482;23;20416;-94
2021/05/22 03:51:08;;;;;;;9.10;1.50;;;7.80;99.90;;;;;;6218472;23;20356;-93
2021/05/22 03:53:34;;;;;;;3.38;1.35;;;7.90;99.90;;;;;;6193504;23;20029;-94
2021/05/22 03:56:02;;;;;;;6.22;1.52;;;7.90;99.90;;;;;;6218190;23;20439;-92
2021/05/22 03:58:29;;;;;;;2.05;1.48;;;7.90;99.90;;;;;;6216857;23;20083;-94
2021/05/22 04:01:10;;;;;;;5.80;1.60;;;7.90;99.90;;;;;;6219422;23;20067;-94
2021/05/22 04:03:37;;;;;;;3.72;1.42;;;7.90;99.90;;;;;;6216922;23;20096;-91
2021/05/22 04:06:07;;;;;;;5.10;1.70;;;7.70;99.90;;;;;;6215515;23;20048;-93
2021/05/22 04:08:36;;;;;;;3.33;1.70;;;7.50;99.90;;;;;;6215881;23;20031;-93
2021/05/22 04:11:06;;;;;;;6.10;1.73;;;7.30;99.90;;;;;;6214454;23;20096;-90
2021/05/22 04:13:33;;;;;;;8.50;1.80;;;7.20;99.90;;;;;;6215037;23;20071;-92
2021/05/22 04:15:59;;;;;;;7.25;1.95;;;7.10;99.90;;;;;;6214402;23;20063;-89
2021/05/22 04:18:26;;;;;;;4.45;1.70;;;7.00;99.90;;;;;;6214612;23;20140;-88
2021/05/22 04:20:53;;;;;;;3.25;1.55;;;6.90;99.90;;;;;;6215612;23;20020;-90
2021/05/22 04:23:20;;;;;;;3.90;1.50;;;6.80;99.90;;;;;;6218969;23;20070;-93
2021/05/22 04:25:49;;;;;;;3.25;1.67;;;6.70;99.90;;;;;;6217112;23;20035;-90
2021/05/22 04:28:16;;;;;;;2.85;1.55;;;6.70;99.90;;;;;;6217477;23;20028;-92
2021/05/22 04:30:45;;;;;;;6.32;1.58;;;6.60;99.90;;;;;;6218739;23;20024;-91
2021/05/22 04:33:12;;;;;;;4.88;1.80;;;6.50;99.90;;;;;;6220632;23;20073;-88
2021/05/22 04:35:41;;;;;;;5.20;1.65;;;6.50;99.90;;;;;;6220342;23;20024;-92
2021/05/22 04:38:09;;;;;;;7.47;2.30;;;6.50;99.90;;;;;;6221818;23;20028;-91
2021/05/22 04:40:36;;;;;;;3.45;1.75;;;6.50;99.90;;;;;;6221992;23;20020;-90
2021/05/22 04:43:03;;;;;;;1.95;1.25;;;6.50;99.90;;;;;;6222924;23;20040;-91
2021/05/22 04:45:34;;;;;;;3.70;1.52;;;6.60;99.90;;;;;;6224197;23;20047;-90
2021/05/22 04:48:01;;;;;;;7.20;1.65;;;6.70;99.90;;;;;;6220288;23;20035;-89
2021/05/22 04:50:29;;;;;;;4.50;1.70;;;6.70;99.90;;;;;;6216503;23;20028;-93
2021/05/22 04:52:56;;;;;;;3.15;1.80;;;6.80;99.90;;;;;;6190282;23;20078;-91
2021/05/22 04:55:22;;;;;;;8.52;2.15;;;6.90;99.90;;;;;;6217634;23;20102;-91
2021/05/22 04:57:49;;;;;;;4.32;1.63;;;6.80;99.90;;;;;;6215794;23;20448;-89
2021/05/22 05:00:17;;;;;;;5.07;2.35;;;6.80;99.90;;;;;;6164755;23;20084;-92
2021/05/22 05:02:44;;;;;;;3.85;1.73;;;6.80;99.90;;;;;;6221311;23;20079;-93
2021/05/22 05:05:12;;;;;;;5.43;2.17;;;6.90;99.90;;;;;;6218650;23;20048;-91
2021/05/22 05:07:42;;;;;;;4.90;2.00;;;6.90;99.90;;;;;;6220982;23;20021;-94
2021/05/22 05:10:12;;;;;;;9.23;2.10;;;7.00;99.90;;;;;;6219266;23;20052;-93
2021/05/22 05:12:39;;;;;;;5.25;2.08;;;7.10;99.90;;;;;;6218827;23;20021;-92
2021/05/22 05:15:07;;;;;;;5.63;1.80;;;7.10;99.90;;;;;;6215940;23;20027;-91
2021/05/22 05:17:34;;;;;;;5.63;2.08;;;7.10;99.90;;;;;;6218491;23;20020;-91
2021/05/22 05:20:04;;;;;;;8.45;2.15;;;7.20;99.90;;;;;;6216934;23;20020;-93
2021/05/22 05:22:31;;;;;;;4.78;2.15;;;7.20;99.90;;;;;;6218249;23;20044;-90
2021/05/22 05:24:58;;;;;;;7.70;2.38;;;7.20;99.90;;;;;;6219224;23;20119;-91
2021/05/22 05:28:31;;;;;;;10.23;2.08;;;7.30;99.90;;;;;;6217577;23;20025;-84
2021/05/22 05:31:01;;;;;;;10.63;2.50;;;7.40;99.90;;;;;;6092782;23;20034;-92
2021/05/22 05:37:17;;;;;;;6.30;2.53;;;7.60;99.90;;;;;;6104473;23;20022;-94
2021/05/22 05:39:44;;;;;;;5.43;2.30;;;7.90;99.90;;;;;;6168864;23;20016;-90
2021/05/22 05:42:13;;;;;;;7.10;2.20;;;7.90;99.90;;;;;;6214653;23;20021;-91
2021/05/22 05:45:01;;;;;;;9.27;1.88;;;8.00;99.90;;;;;;6215940;23;20027;-93
2021/05/22 05:47:28;;;;;;;11.32;2.25;;;8.10;99.90;;;;;;6217003;23;20072;-91
2021/05/22 05:50:18;;;;;;;9.23;1.98;;;8.10;99.90;;;;;;6190940;23;20443;-92
2021/05/22 05:52:46;;;;;;;4.43;2.22;;;8.10;99.90;;;;;;6216650;23;20095;-92
2021/05/22 05:55:14;;;;;;;8.18;2.10;;;8.20;99.90;;;;;;6189299;23;20020;-92
2021/05/22 05:57:43;;;;;;;7.13;1.98;;;8.40;99.90;;;;;;6215500;23;20020;-91
2021/05/22 06:00:35;;;;;;;9.40;2.60;;;8.70;99.90;;;;;;6219323;23;20035;-92
2021/05/22 06:03:03;;;;;;;7.22;1.80;;;9.00;99.90;;;;;;6208475;23;20024;-91
2021/05/22 06:05:30;;;;;;;11.68;2.50;;;9.40;99.90;;;;;;6192106;23;20043;-93
2021/05/22 06:07:57;;;;;;;7.85;2.00;;;9.50;99.90;;;;;;6214415;23;20020;-91
2021/05/22 06:10:24;;;;;;;3.53;1.60;;;9.40;99.90;;;;;;6228258;23;20064;-93
2021/05/22 06:12:55;;;;;;;10.48;2.35;;;9.30;99.90;;;;;;6220104;23;20024;-86
2021/05/22 06:15:25;;;;;;;10.32;2.15;;;9.60;99.90;;;;;;6216971;23;20313;-87
2021/05/22 06:17:52;;;;;;;5.57;1.85;;;9.70;99.90;;;;;;6186757;23;20028;-89
2021/05/22 06:20:19;;;;;;;7.78;1.67;;;10.00;99.90;;;;;;6192796;23;20020;-89
2021/05/22 06:22:46;;;;;;;8.85;1.90;;;10.10;99.90;;;;;;6213861;23;20024;-87
2021/05/22 06:25:14;;;;;;;8.45;1.90;;;10.10;99.90;;;;;;6213546;23;20667;-89
2021/05/22 06:27:43;;;;;;;8.68;1.90;;;10.20;99.90;;;;;;6187306;23;20028;-87
2021/05/22 06:30:11;;;;;;;7.63;1.90;;;10.40;99.90;;;;;;6187729;23;20100;-88
2021/05/22 06:32:45;;;;;;;10.63;2.10;;;10.60;99.90;;;;;;6213289;23;20022;-90
2021/05/22 06:35:12;;;;;;;6.72;2.00;;;10.60;99.90;;;;;;6216200;23;20021;-89
2021/05/22 06:37:39;;;;;;;6.63;1.85;;;10.80;99.90;;;;;;6215541;23;20268;-88
2021/05/22 06:40:08;;;;;;;12.43;2.33;;;10.80;99.90;;;;;;6215723;23;20043;-88
2021/05/22 06:42:35;;;;;;;7.22;2.10;;;11.00;99.90;;;;;;6216040;23;20020;-86
2021/05/22 06:45:07;;;;;;;8.65;2.15;;;11.10;99.90;;;;;;6189557;23;20040;-92
2021/05/22 06:47:34;;;;;;;9.33;1.93;;;11.20;99.90;;;;;;6214517;23;20047;-89
2021/05/22 06:50:01;;;;;;;7.43;1.75;;;11.50;99.90;;;;;;6188133;23;20024;-88
2021/05/22 06:52:27;;;;;;;5.93;2.17;;;11.50;99.90;;;;;;6215199;23;20024;-89
2021/05/22 06:54:55;;;;;;;4.20;1.20;;;11.50;99.90;;;;;;6224304;23;20052;-90
2021/05/22 06:57:22;;;;;;;5.78;1.42;;;11.70;99.90;;;;;;6229936;23;20330;-89
2021/05/22 06:59:50;;;;;;;4.07;1.65;;;12.10;99.90;;;;;;6204200;23;20035;-89
2021/05/22 07:02:17;;;;;;;8.60;1.48;;;12.40;99.90;;;;;;6204942;23;20419;-87
2021/05/22 07:04:44;;;;;;;7.43;1.88;;;12.50;99.90;;;;;;6232922;23;20016;-91
2021/05/22 07:07:12;;;;;;;9.13;1.70;;;12.40;99.90;;;;;;6232303;23;20072;-88
2021/05/22 07:09:39;;;;;;;6.95;1.80;;;12.30;99.90;;;;;;6228248;23;20055;-91
2021/05/22 07:12:07;;;;;;;5.47;1.48;;;12.40;99.90;;;;;;6225103;23;20484;-91
2021/05/22 07:14:33;;;;;;;5.95;1.48;;;12.60;99.90;;;;;;6216880;23;20432;-91
2021/05/22 07:17:02;;;;;;;7.63;1.10;;;12.60;99.90;;;;;;6193359;23;20052;-88
2021/05/22 07:19:32;;;;;;;5.60;1.80;;;12.30;99.90;;;;;;6216569;23;20102;-91
2021/05/22 07:21:59;;;;;;;10.18;1.95;;;12.60;99.90;;;;;;6215130;23;20016;-90
2021/05/22 07:24:26;;;;;;;8.50;1.50;;;12.80;99.90;;;;;;6214649;23;20032;-89
2021/05/22 07:26:53;;;;;;;10.25;1.65;;;13.00;99.90;;;;;;6214644;23;20143;-91
2021/05/22 07:29:20;;;;;;;10.35;2.22;;;12.90;99.90;;;;;;6215247;23;20378;-89
2021/05/22 07:31:47;;;;;;;13.88;1.77;;;12.90;99.90;;;;;;6215609;23;20436;-91
2021/05/22 07:34:14;;;;;;;9.13;2.00;;;12.80;99.20;;;;;;6216799;23;20412;-88
2021/05/22 07:36:41;;;;;;;9.02;1.75;;;12.90;97.80;;;;;;6188130;23;20028;-90
2021/05/22 07:39:12;;;;;;;6.57;1.70;;;13.10;97.60;;;;;;6213374;23;20099;-89
2021/05/22 07:41:44;;;;;;;9.18;1.70;;;13.00;96.70;;;;;;6189173;23;20021;-90
2021/05/22 07:44:12;;;;;;;8.18;2.00;;;12.90;95.90;;;;;;6217490;23;20020;-92
2021/05/22 07:46:42;;;;;;;7.65;1.63;;;13.10;94.90;;;;;;6218898;23;20128;-93
2021/05/22 07:49:12;;;;;;;6.75;1.83;;;13.50;94.70;;;;;;6218904;23;20108;-90
2021/05/22 07:51:41;;;;;;;5.75;1.42;;;13.60;89.00;;;;;;6221844;23;20035;-92
2021/05/22 07:54:09;;;;;;;6.55;1.52;;;13.50;89.30;;;;;;6220468;23;20063;-90
2021/05/22 07:56:41;;;;;;;9.68;1.80;;;13.40;88.30;;;;;;6225197;23;20358;-93
2021/05/22 07:59:11;;;;;;;6.78;1.50;;;13.60;89.00;;;;;;6221044;23;20400;-93
2021/05/22 08:01:42;;;;;;;3.78;1.10;;;13.70;85.10;;;;;;6222062;23;20075;-93
2021/05/22 08:04:42;;;;;;;;;;;13.90;86.60;;;;;;6099634;23;20030;-89
2021/05/22 08:07:54;;;;;;;7.00;1.63;;;14.20;79.00;;;;;;6102131;23;19921;-93
2021/05/22 08:11:31;;;;;;;3.28;1.20;;;14.70;77.20;;;;;;6015415;23;20024;-93
2021/05/22 08:14:12;;;;;;;6.03;1.48;;;15.10;78.20;;;;;;5889761;24;20414;-92
2021/05/22 08:17:09;;;;;;;;;;;;;;;;;;;;;
2021/05/22 08:19:41;;;;;;;5.65;1.20;;;15.40;72.80;;;;;;5984792;24;20103;-92
2021/05/22 08:22:34;;;;;;;3.88;1.20;;;15.30;68.00;;;;;;6126213;23;20044;-92
2021/05/22 08:25:09;;;;;;;4.13;1.45;;;15.00;72.70;;;;;;6197568;23;20150;-92
2021/05/22 08:31:26;;;;;;;5.20;1.10;;;15.60;69.10;;;;;;6073717;23;20114;-92
2021/05/22 08:34:49;;;;;;;4.47;1.33;;;15.70;65.10;;;;;;6098069;23;20034;-92
2021/05/22 08:37:20;;;;;;;4.78;1.15;;;16.00;64.10;;;;;;6097032;23;20093;-93
2021/05/22 08:40:26;;;;;;;5.03;1.13;;;15.80;64.80;;;;;;6026619;23;20030;-91
2021/05/22 08:43:00;;;;;;;6.22;1.52;;;15.70;65.90;;;;;;6075390;23;20081;-91
2021/05/22 08:45:54;;;;;;;8.10;1.85;;;15.00;68.90;;;;;;6078586;23;20054;-92
2021/05/22 08:48:36;;;;;;;7.18;1.45;;;15.20;68.50;;;;;;6011713;23;20035;-93
2021/05/22 08:51:43;;;;;;;6.38;1.50;;;15.50;64.70;;;;;;6096766;23;20098;-92
2021/05/22 08:54:33;;;;;;;2.75;1.05;;;15.00;65.40;;;;;;6100200;23;20022;-92
2021/05/22 09:01:01;;;;;;;5.38;2.40;;;15.50;64.10;;;;;;6077692;23;20022;-93
2021/05/22 09:04:20;;;;;;;6.25;1.23;;;16.00;63.80;;;;;;5932953;24;20078;-92
2021/05/22 09:07:11;;;;;;;3.47;1.20;;;17.00;60.40;;;;;;5879724;24;20029;-92
2021/05/22 09:10:29;;;;;;;3.70;1.20;;;17.40;57.60;;;;;;5899504;24;20066;-92
2021/05/22 09:13:32;;;;;;;4.18;1.15;;;17.70;56.90;;;;;;5900345;24;20031;-92
2021/05/22 09:16:20;;;;;;;6.15;1.15;;;17.00;55.20;;;;;;5897351;24;20028;-90
2021/05/22 09:19:10;;;;;;;4.03;1.10;;;16.60;56.80;;;;;;5918076;24;21023;-91
2021/05/22 09:25:16;;;;;;;3.95;0.80;;;17.10;57.50;;;;;;5824022;24;20074;-91
2021/05/22 09:28:55;;;;;;;4.20;1.20;;;16.30;57.40;;;;;;5829900;24;20026;-92
2021/05/22 09:31:41;;;;;;;4.18;0.98;;;16.10;57.50;;;;;;5744295;24;20366;-92
2021/05/22 09:34:42;;;;;;;4.88;1.20;;;16.40;56.40;;;;;;5742668;24;20475;-93
2021/05/22 09:37:38;;;;;;;;;;;;;;;;;;;;;
2021/05/22 09:40:29;;;;;;;5.40;1.33;;;16.60;56.70;;;;;;5769328;24;20064;-92
2021/05/22 09:43:13;;;;;;;3.53;1.30;;;16.70;54.50;;;;;;5845043;24;20101;-92
2021/05/22 09:45:59;;;;;;;3.22;0.98;;;16.20;55.70;;;;;;5847236;24;20073;-93
2021/05/22 09:48:43;;;;;;;3.25;1.02;;;16.80;55.90;;;;;;5832400;24;20603;-90
2021/05/22 09:51:57;;;;;;;3.63;1.08;;;16.50;53.90;;;;;;5843074;24;20131;-93
2021/05/22 09:55:23;;;;;;;9.20;1.30;;;16.40;56.00;;;;;;5841490;24;20036;-92
2021/05/22 09:58:34;;;;;;;3.67;0.93;;;17.10;55.90;;;;;;5894535;24;20037;-91
2021/05/22 10:01:27;;;;;;;4.22;1.00;;;17.40;54.20;;;;;;5925858;24;20090;-91
2021/05/22 10:04:19;;;;;;;2.97;1.10;;;17.40;54.20;;;;;;6050214;23;20111;-90
2021/05/22 10:06:51;;;;;;;2.33;0.73;;;16.80;54.10;;;;;;6044201;23;20385;-91
2021/05/22 10:09:55;;;;;;;4.47;1.40;;;16.70;55.00;;;;;;6067977;23;20019;-93
2021/05/22 10:12:28;;;;;;;3.90;1.10;;;16.30;55.00;;;;;;6069207;23;20030;-95
2021/05/22 10:15:18;;;;;;;8.32;1.42;;;15.30;56.60;;;;;;6070015;23;20110;-93
2021/05/22 10:17:49;;;;;;;2.67;0.98;;;14.90;58.30;;;;;;6070276;23;20329;-93
2021/05/22 10:20:39;;;;;;;6.75;1.27;;;15.20;58.00;;;;;;6069737;23;20086;-91
2021/05/22 10:26:22;;;;;;;6.70;1.20;;;15.50;57.50;;;;;;6057547;23;20414;-91
2021/05/22 10:28:49;;;;;;;5.38;1.20;;;16.40;56.00;;;;;;6068028;23;20027;-91
2021/05/22 10:31:52;;;;;;;2.63;1.10;;;16.70;56.60;;;;;;6081104;23;20023;-93
2021/05/22 10:34:55;;;;;;;4.55;1.23;;;17.00;56.10;;;;;;6009972;23;20023;-91
2021/05/22 10:37:47;;;;;;;4.55;1.08;;;17.40;57.00;;;;;;6038395;23;20030;-91
2021/05/22 10:43:58;;;;;;;2.92;1.25;;;18.40;52.20;;;;;;6038931;23;20078;-92
2021/05/22 10:47:12;;;;;;;3.80;0.90;;;19.30;50.30;;;;;;5995272;23;20019;-92
2021/05/22 10:49:49;;;;;;;3.60;1.25;;;19.30;46.70;;;;;;6038163;23;20023;-92
2021/05/22 10:53:16;;;;;;;4.93;1.10;;;19.60;46.50;;;;;;6035681;23;20103;-92
2021/05/22 10:56:19;;;;;;;3.65;1.17;;;18.90;46.60;;;;;;5946994;24;20025;-91
2021/05/22 11:02:38;;;;;;;2.78;1.08;;;20.00;45.30;;;;;;5892833;24;20032;-92
2021/05/22 11:05:32;;;;;;;4.75;0.90;;;19.10;45.50;;;;;;5903892;23;20027;-91
2021/05/22 11:08:16;;;;;;;2.47;1.20;;;18.60;48.30;;;;;;6125849;23;20071;-91
2021/05/22 11:10:51;;;;;;;3.13;0.90;;;18.40;46.30;;;;;;6214356;23;20012;-92
2021/05/22 11:16:53;;;;;;;3.10;1.33;;;19.00;45.50;;;;;;6128027;23;20036;-92
2021/05/22 11:20:05;;;;;;;3.10;1.38;;;19.50;45.70;;;;;;6153085;23;20021;-92
2021/05/22 11:23:34;;;;;;;2.63;1.02;;;18.90;45.80;;;;;;6153097;23;20017;-92
2021/05/22 11:26:21;;;;;;;2.28;0.70;;;19.20;45.90;;;;;;6155219;23;20104;-92
2021/05/22 11:29:09;;;;;;;5.57;1.00;;;19.20;43.60;;;;;;6038362;23;20046;-91
2021/05/22 11:32:46;;;;;;;6.85;1.23;;;18.50;44.50;;;;;;6023752;23;20034;-92
2021/05/22 11:35:30;;;;;;;3.55;1.00;;;18.20;45.60;;;;;;6096459;23;20038;-92
2021/05/22 11:38:48;;;;;;;4.05;1.10;;;19.40;45.80;;;;;;6098487;23;20040;-92
2021/05/22 11:41:29;;;;;;;1.90;0.90;;;19.50;43.60;;;;;;6073519;23;20026;-93
2021/05/22 11:44:44;;;;;;;;;;;;;;;;;;;;;
2021/05/22 11:47:34;;;;;;;2.15;0.73;;;19.50;44.70;;;;;;6084977;23;20017;-94
2021/05/22 11:50:37;;;;;;;2.28;0.98;;;20.90;42.40;;;;;;6126246;23;20033;-92
2021/05/22 11:53:23;;;;;;;2.28;0.80;;;20.60;41.30;;;;;;6101571;23;20018;-89
2021/05/22 11:56:04;;;;;;;5.75;0.90;;;20.40;42.20;;;;;;6127773;23;20018;-91
2021/05/22 11:58:51;;;;;;;3.88;1.15;;;20.80;42.00;;;;;;6101318;23;20278;-91
2021/05/22 12:01:42;;;;;;;;;;;;;;;;;;;;;
2021/05/22 12:04:26;;;;;;;2.63;0.80;;;19.40;44.60;;;;;;6109270;23;20026;-91
2021/05/22 12:07:20;;;;;;;3.30;0.80;;;20.20;42.80;;;;;;6103651;23;20116;-91
2021/05/22 12:09:47;;;;;;;2.67;0.90;;;20.70;42.00;;;;;;6127190;23;20018;-92
2021/05/22 12:12:14;;;;;;;2.75;0.90;;;20.10;43.00;;;;;;6101414;23;20042;-92
2021/05/22 12:15:06;;;;;;;3.30;1.10;;;20.60;42.10;;;;;;6125632;23;20495;-91
2021/05/22 12:17:44;;;;;;;2.00;0.63;;;19.80;42.30;;;;;;6151689;23;20027;-92
2021/05/22 12:20:27;;;;;;;4.88;1.20;;;19.30;44.60;;;;;;6217819;23;20024;-93
2021/05/22 12:22:55;;;;;;;;;;;18.80;44.80;;;;;;6219756;23;20025;-92
2021/05/22 12:25:34;;;;;;;2.75;1.10;;;18.50;46.30;;;;;;6217628;23;19924;-90
2021/05/22 12:28:23;;;;;;;2.85;0.88;;;18.80;46.10;;;;;;6204189;23;20025;-93
2021/05/22 12:30:57;;;;;;;6.35;1.02;;;19.20;46.10;;;;;;6210384;23;20021;-92
2021/05/22 12:36:34;;;;;;;4.05;1.08;;;19.40;45.20;;;;;;6227305;23;20068;-91
2021/05/22 12:39:18;;;;;;;3.22;0.60;;;20.40;44.70;;;;;;6236398;23;20078;-91
2021/05/22 12:41:44;;;;;;;2.20;0.68;;;20.40;43.10;;;;;;6206786;23;20005;-90
2021/05/22 12:45:05;;;;;;;3.22;0.90;;;19.70;43.80;;;;;;6208004;23;20032;-92
2021/05/22 12:48:09;;;;;;;3.28;0.90;;;18.60;45.20;;;;;;6177517;23;20033;-92
2021/05/22 12:50:36;;;;;;;4.65;1.17;;;17.80;47.30;;;;;;6177509;23;20051;-93
2021/05/22 12:53:30;;;;;;;2.55;1.00;;;17.50;48.00;;;;;;6223760;23;20060;-92
2021/05/22 12:56:13;;;;;;;2.40;0.70;;;17.20;48.50;;;;;;6220889;23;20027;-92
2021/05/22 12:58:51;;;;;;;;;;;;;;;;;;;;;
2021/05/22 13:01:20;;;;;;;4.22;0.95;;;16.10;52.90;;;;;;6223914;23;20092;-93
2021/05/22 13:03:54;;;;;;;3.17;0.95;;;16.30;52.70;;;;;;6196397;23;20043;-92
2021/05/22 13:07:11;;;;;;;4.22;0.73;;;17.10;50.60;;;;;;6221104;23;20071;-93
2021/05/22 13:10:11;;;;;;;2.67;0.75;;;18.70;48.20;;;;;;6129783;23;20074;-92
2021/05/22 13:13:08;;;;;;;2.20;0.60;;;20.20;44.00;;;;;;6013299;23;20024;-92
2021/05/22 13:16:14;;;;;;;3.22;0.90;;;20.20;43.00;;;;;;5992242;23;20028;-90
2021/05/22 13:18:49;;;;;;;1.75;0.70;;;20.50;42.40;;;;;;5993386;23;20661;-91
2021/05/22 13:21:32;;;;;;;3.42;0.77;;;21.00;42.00;;;;;;6015528;23;20148;-90
2021/05/22 13:24:22;;;;;;;4.80;1.15;;;20.00;42.90;;;;;;6011743;23;20028;-90
2021/05/22 13:27:23;;;;;;;4.68;1.13;;;18.30;44.90;;;;;;6012175;23;20327;-92
2021/05/22 13:30:51;;;;;;;5.70;1.05;;;17.30;46.80;;;;;;5992523;23;20027;-92
2021/05/22 13:33:39;;;;;;;4.93;0.70;;;18.00;47.40;;;;;;6011221;23;20072;-92
2021/05/22 13:36:08;;;;;;;1.80;0.60;;;17.80;46.80;;;;;;5989584;23;20027;-90
2021/05/22 13:38:53;;;;;;;4.85;0.90;;;17.20;48.40;;;;;;6015707;23;20028;-92
2021/05/22 13:41:32;;;;;;;2.67;0.87;;;16.90;49.70;;;;;;6053035;23;20030;-89
2021/05/22 13:44:18;;;;;;;4.40;0.93;;;17.00;48.90;;;;;;6075267;23;20034;-93
2021/05/22 13:47:00;;;;;;;3.65;0.93;;;16.80;49.60;;;;;;6101566;23;20034;-92
2021/05/22 13:49:27;;;;;;;2.35;0.90;;;16.90;49.30;;;;;;6099964;23;20017;-91
2021/05/22 13:51:54;;;;;;;3.22;1.10;;;18.50;47.90;;;;;;6217121;23;20040;-93
2021/05/22 13:54:33;;;;;;;0.93;0.70;;;19.00;44.80;;;;;;6190356;23;20112;-91
2021/05/22 13:57:00;;;;;;;1.95;0.70;;;19.30;45.40;;;;;;6189257;23;20024;-89
2021/05/22 13:59:35;;;;;;;3.55;1.05;;;20.00;43.80;;;;;;6191089;23;20083;-92
2021/05/22 14:02:25;;;;;;;3.05;1.05;;;20.70;42.10;;;;;;6200273;23;20092;-91
2021/05/22 14:04:53;;;;;;;2.92;0.85;;;19.50;43.20;;;;;;6190222;23;20039;-91
2021/05/22 14:07:30;;;;;;;;;;;;;;;;;;;;;
2021/05/22 14:10:26;;;;;;;2.92;0.70;;;18.10;45.60;;;;;;6206030;23;20766;-91
2021/05/22 14:13:26;;;;;;;2.40;0.80;;;17.30;45.90;;;;;;6188875;23;20018;-91
2021/05/22 14:16:08;;;;;;;3.10;0.88;;;16.80;49.00;;;;;;6162588;23;20380;-92
2021/05/22 14:18:36;;;;;;;3.10;1.00;;;16.60;49.80;;;;;;6190173;23;20035;-93
2021/05/22 14:21:37;;;;;;;4.88;1.00;;;16.90;49.20;;;;;;6192870;23;20062;-91
2021/05/22 14:28:06;;;;;;;1.77;0.77;;;17.80;48.20;;;;;;6126039;23;20057;-93
2021/05/22 14:30:54;;;;;;;4.78;0.77;;;20.30;45.00;;;;;;6106610;23;20417;-91
2021/05/22 14:37:25;;;;;;;2.15;1.00;;;19.00;44.30;;;;;;5994195;23;20028;-93
2021/05/22 14:40:10;;;;;;;2.85;0.88;;;17.80;48.60;;;;;;5890916;24;20116;-92